Buckley, Michigan
Current Conditions -  °F | °C
As of 4:53 PM on Monday 22 Dec 2014 (Local Time) from KTVC Reporting Station
Overcast Overcast  
Wind Chill: -1°   Ceiling: 7500
Heat Index:   Visibility: 10mi
Dew Point: -3°   Wind: 7mph
Humidity: 67%   Direction: 110°ESE
Pressure: 29.9"   Gusts: NA
Location:  44.5°N, 85.68°W
Report Text: KTVC 222153Z 11006KT 10SM BKN075 OVC100 02/M03 A2990 RMK AO2 SLP130 T00221033
Loading
Personal Weather Stations






























Interactive Weather Map New forecast layout! Learn more

10-Day Weather Forecast

Advertisements
Track Severe Weather on mobile